Date,TemperatureHighF,TemperatureAvgF,TemperatureLowF,DewpointHighF,DewpointAvgF,DewpointLowF,HumidityHigh,HumidityAvg,HumidityLow,PressureMaxIn,PressureMinIn,WindSpeedMaxMPH,WindSpeedAvgMPH,GustSpeedMaxMPH,PrecipitationSumIn
2013-1-1,29,21,12,-100,-100,-100,0,0,100,0.00,40.00,0,-999,0,0.00
2013-1-2,30,24,6,-100,-100,-100,0,0,100,0.00,40.00,0,-999,0,0.00
2013-1-3,36,26,16,-100,-100,-100,0,0,100,0.00,40.00,0,-999,0,0.00
2013-1-4,47,38,16,-100,-100,-100,0,0,100,0.00,40.00,0,-999,0,0.00
2013-1-5,47,39,31,-100,-100,-100,0,0,100,0.00,40.00,0,-999,0,0.00
2013-1-6,49,34,25,-100,-100,-100,0,0,100,0.00,40.00,0,-999,0,0.00
2013-1-7,54,43,33,-100,-100,-100,0,0,100,0.00,40.00,0,-999,0,0.00
2013-1-8,58,44,33,-100,-100,-100,0,0,100,0.00,40.00,0,-999,0,0.00
2013-1-9,57,35,25,-100,-100,-100,0,0,100,0.00,40.00,0,-999,0,0.00
2013-1-10,49,44,33,-100,-100,-100,0,0,100,0.00,40.00,0,-999,0,0.00
2013-1-11,61,54,43,-100,-100,-100,0,0,100,0.00,40.00,0,-999,0,0.00
2013-1-12,51,30,24,-100,-100,-100,0,0,100,0.00,40.00,0,-999,0,0.00
2013-1-13,30,22,15,-100,-100,-100,0,0,100,0.00,40.00,0,-999,0,0.00
2013-1-14,36,21,10,-100,-100,-100,0,0,100,0.00,40.00,0,-999,0,0.00
2013-1-15,43,26,15,-100,-100,-100,0,0,100,0.00,40.00,0,-999,0,0.00
2013-1-16,55,34,23,-100,-100,-100,0,0,100,0.00,40.00,0,-999,0,0.00
2013-1-17,58,40,26,-100,-100,-100,0,0,100,0.00,40.00,0,-999,0,0.00
2013-1-18,63,49,37,-100,-100,-100,0,0,100,0.00,40.00,0,-999,0,0.00
2013-1-19,66,49,32,-100,-100,-100,0,0,100,0.00,40.00,0,-999,0,0.00
2013-1-20,42,30,23,-100,-100,-100,0,0,100,0.00,40.00,0,-999,0,0.00
2013-1-21,29,21,16,-100,-100,-100,0,0,100,0.00,40.00,0,-999,0,0.00
2013-1-22,40,26,18,-100,-100,-100,0,0,100,0.00,40.00,0,-999,0,0.00
2013-1-23,50,29,14,-100,-100,-100,0,0,100,0.00,40.00,0,-999,0,0.00
2013-1-24,32,26,14,-100,-100,-100,0,0,100,0.00,40.00,0,-999,0,0.00
2013-1-25,53,33,18,-100,-100,-100,0,0,100,0.00,40.00,0,-999,0,0.00
2013-1-26,62,40,27,-100,-100,-100,0,0,100,0.00,40.00,0,-999,0,0.00
2013-1-27,62,53,43,-100,-100,-100,0,0,100,0.00,40.00,0,-999,0,0.00
2013-1-28,78,65,50,-100,-100,-100,0,0,100,0.00,40.00,0,-999,0,0.00
2013-1-29,69,43,37,-100,-100,-100,0,0,100,0.00,40.00,0,-999,0,0.00
2013-1-30,36,30,20,-100,-100,-100,0,0,100,0.00,40.00,0,-999,0,0.00
2013-1-31,24,18,8,-100,-100,-100,0,0,100,0.00,40.00,0,-999,0,0.00